createdAt,value
2017-10-30T00:00:19.734Z,3.20
2017-10-30T00:02:48.012Z,3.00
2017-10-30T00:05:16.245Z,3.17
2017-10-30T00:07:43.725Z,3.10
2017-10-30T00:10:11.184Z,2.63
2017-10-30T00:12:39.425Z,3.47
2017-10-30T00:15:06.888Z,4.40
2017-10-30T00:17:34.384Z,3.53
2017-10-30T00:20:01.866Z,3.00
2017-10-30T00:22:29.337Z,3.00
2017-10-30T00:24:57.633Z,3.20
2017-10-30T00:27:25.147Z,3.30
2017-10-30T00:29:52.632Z,3.25
2017-10-30T00:32:20.104Z,3.80
2017-10-30T00:34:47.581Z,4.33
2017-10-30T00:37:15.048Z,3.90
2017-10-30T00:39:42.533Z,3.65
2017-10-30T00:42:10.773Z,3.80
2017-10-30T00:44:38.251Z,3.60
2017-10-30T00:47:05.722Z,3.73
2017-10-30T00:49:33.988Z,4.07
2017-10-30T00:52:01.477Z,4.17
2017-10-30T00:54:28.948Z,4.00
2017-10-30T00:56:56.424Z,3.50
2017-10-30T00:59:23.916Z,3.90
2017-10-30T01:01:52.165Z,3.97
2017-10-30T01:04:19.692Z,4.50
2017-10-30T01:06:47.204Z,4.47
2017-10-30T01:09:15.461Z,3.13
2017-10-30T01:11:42.949Z,3.37
2017-10-30T01:14:11.188Z,3.43
2017-10-30T01:16:38.682Z,3.63
2017-10-30T01:19:06.937Z,3.67
2017-10-30T01:21:34.421Z,4.13
2017-10-30T01:24:02.667Z,4.43
2017-10-30T01:26:30.168Z,3.60
2017-10-30T01:28:58.425Z,4.23
2017-10-30T01:31:25.928Z,4.15
2017-10-30T01:33:53.947Z,4.20
2017-10-30T01:36:21.432Z,4.37
2017-10-30T01:38:49.681Z,3.80
2017-10-30T01:41:18.692Z,4.77
2017-10-30T01:43:52.959Z,3.70
2017-10-30T01:46:20.452Z,3.83
2017-10-30T01:48:48.035Z,4.30
2017-10-30T01:51:16.276Z,3.70
2017-10-30T01:53:43.762Z,3.80
2017-10-30T01:56:12.012Z,3.27
2017-10-30T01:58:39.484Z,3.53
2017-10-30T02:01:06.972Z,3.20
2017-10-30T02:03:34.453Z,2.60
2017-10-30T02:06:01.946Z,3.20
2017-10-30T02:08:29.424Z,3.30
2017-10-30T02:10:57.678Z,2.93
2017-10-30T02:13:25.164Z,3.20
2017-10-30T02:15:53.413Z,3.67
2017-10-30T02:18:21.337Z,2.65
2017-10-30T02:20:48.844Z,2.77
2017-10-30T02:23:16.320Z,3.57
2017-10-30T02:25:44.557Z,3.17
2017-10-30T02:28:12.044Z,3.10
2017-10-30T02:30:39.510Z,2.73
2017-10-30T02:33:07.752Z,3.47
2017-10-30T02:35:35.216Z,3.00
2017-10-30T02:38:03.473Z,3.53
2017-10-30T02:40:30.946Z,3.12
2017-10-30T02:42:58.429Z,3.23
2017-10-30T02:45:26.460Z,3.50
2017-10-30T02:47:53.948Z,5.00
2017-10-30T02:50:21.408Z,3.63
2017-10-30T02:52:48.905Z,2.93
2017-10-30T02:55:16.385Z,3.20
2017-10-30T02:57:43.886Z,2.97
2017-10-30T03:00:11.349Z,3.80
2017-10-30T03:02:39.591Z,3.10
2017-10-30T03:05:07.051Z,3.50
2017-10-30T03:07:34.519Z,3.30
2017-10-30T03:10:02.020Z,5.20
2017-10-30T03:12:29.507Z,3.23
2017-10-30T03:14:57.013Z,4.20
2017-10-30T03:17:25.245Z,3.80
2017-10-30T03:19:52.737Z,3.07
2017-10-30T03:22:20.983Z,3.80
2017-10-30T03:24:48.479Z,3.90
2017-10-30T03:27:16.720Z,3.50
2017-10-30T03:29:44.251Z,3.27
2017-10-30T03:32:12.967Z,3.00
2017-10-30T03:34:40.461Z,3.63
2017-10-30T03:37:08.704Z,3.70
2017-10-30T03:39:36.180Z,3.60
2017-10-30T03:42:03.641Z,3.80
2017-10-30T03:44:31.129Z,3.40
2017-10-30T03:46:58.610Z,4.15
2017-10-30T03:49:26.129Z,3.80
2017-10-30T03:51:54.375Z,4.33
2017-10-30T03:54:21.846Z,4.37
2017-10-30T03:56:50.105Z,3.70
2017-10-30T03:59:17.564Z,4.30
2017-10-30T04:01:45.058Z,3.63
2017-10-30T04:04:13.286Z,4.10
2017-10-30T04:06:40.773Z,3.80
2017-10-30T04:09:08.234Z,3.20
2017-10-30T04:11:36.530Z,4.03
2017-10-30T04:14:04.761Z,4.33
2017-10-30T04:16:32.256Z,3.87
2017-10-30T04:19:00.496Z,4.03
2017-10-30T04:21:28.076Z,3.50
2017-10-30T04:23:55.560Z,3.67
2017-10-30T04:26:23.060Z,3.60
2017-10-30T04:28:50.545Z,3.37
2017-10-30T04:31:18.108Z,3.30
2017-10-30T04:33:47.114Z,3.47
2017-10-30T04:36:15.361Z,3.43
2017-10-30T04:38:43.390Z,3.00
2017-10-30T04:41:10.877Z,3.60
2017-10-30T04:43:38.361Z,3.10
2017-10-30T04:46:05.866Z,2.50
2017-10-30T04:48:34.262Z,3.27
2017-10-30T04:51:01.754Z,3.20
2017-10-30T04:53:29.244Z,3.87
2017-10-30T04:55:57.493Z,3.60
2017-10-30T04:58:24.975Z,3.87
2017-10-30T05:00:53.249Z,4.43
2017-10-30T05:03:21.491Z,3.87
2017-10-30T05:05:48.963Z,3.70
2017-10-30T05:08:16.435Z,3.90
2017-10-30T05:10:44.802Z,3.53
2017-10-30T05:13:12.288Z,3.07
2017-10-30T05:15:39.762Z,3.60
2017-10-30T05:18:07.240Z,3.60
2017-10-30T05:20:34.715Z,3.63
2017-10-30T05:23:02.977Z,3.33
2017-10-30T05:25:30.585Z,3.97
2017-10-30T05:27:58.858Z,3.03
2017-10-30T05:30:27.101Z,4.53
2017-10-30T05:32:54.577Z,3.57
2017-10-30T05:35:22.057Z,3.40
2017-10-30T05:37:50.300Z,3.10
2017-10-30T05:40:18.728Z,3.27
2017-10-30T05:42:46.250Z,3.03
2017-10-30T05:45:14.502Z,3.70
2017-10-30T05:47:42.001Z,2.80
2017-10-30T05:50:10.227Z,2.50
2017-10-30T05:52:37.724Z,3.47
2017-10-30T05:55:05.965Z,3.60
2017-10-30T05:57:33.445Z,4.00
2017-10-30T06:00:02.060Z,3.50
2017-10-30T06:02:29.525Z,3.43
2017-10-30T06:04:57.026Z,3.90
2017-10-30T06:07:24.491Z,4.90
2017-10-30T06:09:51.990Z,3.73
2017-10-30T06:12:19.495Z,3.90
2017-10-30T06:14:46.972Z,3.93
2017-10-30T06:17:14.476Z,3.90
2017-10-30T06:19:42.341Z,3.80
2017-10-30T06:22:09.822Z,3.27
2017-10-30T06:24:37.296Z,3.37
2017-10-30T06:27:04.776Z,3.90
2017-10-30T06:29:33.047Z,4.37
2017-10-30T06:32:00.529Z,4.63
2017-10-30T06:34:28.785Z,4.07
2017-10-30T06:36:57.030Z,5.20
2017-10-30T06:39:24.517Z,5.40
2017-10-30T06:41:52.801Z,4.43
2017-10-30T06:44:20.290Z,4.45
2017-10-30T06:46:47.763Z,3.80
2017-10-30T06:49:15.257Z,4.40
2017-10-30T06:51:43.649Z,5.65
2017-10-30T06:54:11.144Z,5.00
2017-10-30T06:56:38.605Z,5.23
2017-10-30T06:59:06.089Z,4.43
2017-10-30T07:01:33.562Z,5.10
2017-10-30T07:04:01.300Z,4.83
2017-10-30T07:06:28.771Z,4.83
2017-10-30T07:08:56.265Z,4.60
2017-10-30T07:11:23.738Z,3.90
2017-10-30T07:13:51.989Z,4.20
2017-10-30T07:16:20.068Z,4.63
2017-10-30T07:18:47.543Z,5.97
2017-10-30T07:21:15.043Z,4.90
2017-10-30T07:23:42.530Z,4.67
2017-10-30T07:26:10.035Z,4.90
2017-10-30T07:28:37.535Z,5.37
2017-10-30T07:31:05.052Z,4.60
2017-10-30T07:33:32.525Z,4.20
2017-10-30T07:36:00.032Z,5.40
2017-10-30T07:38:27.503Z,4.23
2017-10-30T07:40:55.740Z,4.03
2017-10-30T07:43:23.226Z,4.73
2017-10-30T07:45:50.705Z,4.20
2017-10-30T07:48:18.957Z,4.20
2017-10-30T07:50:46.553Z,4.20
2017-10-30T07:53:14.024Z,4.10
2017-10-30T07:55:41.521Z,5.73
2017-10-30T07:58:09.011Z,9.77
2017-10-30T08:00:38.106Z,7.10
2017-10-30T08:03:06.391Z,4.83
2017-10-30T08:05:33.918Z,4.60
2017-10-30T08:08:01.410Z,4.40
2017-10-30T08:10:28.885Z,4.50
2017-10-30T08:12:56.385Z,4.30
2017-10-30T08:15:25.374Z,4.10
2017-10-30T08:17:53.408Z,4.10
2017-10-30T08:20:20.888Z,4.27
2017-10-30T08:22:48.389Z,4.50
2017-10-30T08:25:16.628Z,4.10
2017-10-30T08:27:44.116Z,4.40
2017-10-30T08:30:12.386Z,4.40
2017-10-30T08:32:39.873Z,4.50
2017-10-30T08:35:07.384Z,3.65
2017-10-30T08:37:34.856Z,3.83
2017-10-30T08:40:02.346Z,4.70
2017-10-30T08:42:29.830Z,3.70
2017-10-30T08:44:57.326Z,5.00
2017-10-30T08:47:24.823Z,4.00
2017-10-30T08:49:52.308Z,4.30
2017-10-30T08:52:19.814Z,4.30
2017-10-30T08:54:48.070Z,4.87
2017-10-30T08:57:15.554Z,3.60
2017-10-30T08:59:44.621Z,4.77
2017-10-30T09:02:12.101Z,5.40
2017-10-30T09:04:40.358Z,4.90
2017-10-30T09:07:07.832Z,4.43
2017-10-30T09:09:35.444Z,4.27
2017-10-30T09:12:02.908Z,4.50
2017-10-30T09:14:30.417Z,4.80
2017-10-30T09:16:58.658Z,3.97
2017-10-30T09:19:26.132Z,5.07
2017-10-30T09:21:53.604Z,4.60
2017-10-30T09:24:21.855Z,4.13
2017-10-30T09:26:49.333Z,3.70
2017-10-30T09:29:16.822Z,3.30
2017-10-30T09:31:45.217Z,5.50
2017-10-30T09:34:12.709Z,4.37
2017-10-30T09:36:40.185Z,5.00
2017-10-30T09:39:07.684Z,5.00
2017-10-30T09:41:35.161Z,3.35
2017-10-30T09:44:02.638Z,3.77
2017-10-30T09:46:30.136Z,5.97
2017-10-30T09:48:58.421Z,4.00
2017-10-30T09:51:25.888Z,3.70
2017-10-30T09:53:53.376Z,3.70
2017-10-30T09:56:20.868Z,5.70
2017-10-30T09:58:49.109Z,4.30
2017-10-30T10:01:16.602Z,4.43
2017-10-30T10:03:44.849Z,3.90
2017-10-30T10:06:12.330Z,4.00
2017-10-30T10:08:39.822Z,3.20
2017-10-30T10:11:07.325Z,2.73
2017-10-30T10:13:34.804Z,3.30
2017-10-30T10:16:02.285Z,3.90
2017-10-30T10:18:30.534Z,4.03
2017-10-30T10:20:58.031Z,2.60
2017-10-30T10:23:25.500Z,3.53
2017-10-30T10:25:52.999Z,2.83
2017-10-30T10:28:21.473Z,2.60
2017-10-30T10:30:50.753Z,3.03
2017-10-30T10:33:18.238Z,4.77
2017-10-30T10:35:45.743Z,3.33
2017-10-30T10:38:13.235Z,3.43
2017-10-30T10:40:40.728Z,2.90
2017-10-30T10:43:08.193Z,2.80
2017-10-30T10:45:36.441Z,2.80
2017-10-30T10:48:03.925Z,2.50
2017-10-30T10:50:32.201Z,2.50
2017-10-30T10:53:01.090Z,2.50
2017-10-30T10:55:29.337Z,2.80
2017-10-30T10:57:56.812Z,3.77
2017-10-30T11:00:24.317Z,5.10
2017-10-30T11:02:51.791Z,2.33
2017-10-30T11:05:19.464Z,2.80
2017-10-30T11:07:46.950Z,2.80
2017-10-30T11:10:14.440Z,2.80
2017-10-30T11:12:41.937Z,3.03
2017-10-30T11:15:09.420Z,3.20
2017-10-30T11:17:36.912Z,2.90
2017-10-30T11:20:04.368Z,3.05
2017-10-30T11:22:31.878Z,2.80
2017-10-30T11:24:59.359Z,2.67
2017-10-30T11:27:26.829Z,2.40
2017-10-30T11:29:55.069Z,2.73
2017-10-30T11:32:22.554Z,3.00
2017-10-30T11:34:50.030Z,2.60
2017-10-30T11:37:18.520Z,2.67
2017-10-30T11:39:45.985Z,2.40
2017-10-30T11:42:13.486Z,3.10
2017-10-30T11:44:40.984Z,2.87
2017-10-30T11:47:09.230Z,2.87
2017-10-30T11:49:38.206Z,3.40
2017-10-30T11:52:05.713Z,4.33
2017-10-30T11:54:33.960Z,4.60
2017-10-30T11:57:01.469Z,3.50
2017-10-30T11:59:28.971Z,4.10
2017-10-30T12:01:56.447Z,3.70
2017-10-30T12:04:24.699Z,3.95
2017-10-30T12:06:52.171Z,5.50
2017-10-30T12:09:20.438Z,3.50
2017-10-30T12:11:49.455Z,5.33
2017-10-30T12:14:17.686Z,2.50
2017-10-30T12:16:45.173Z,4.50
2017-10-30T12:19:12.651Z,4.57
2017-10-30T12:21:40.913Z,4.47
2017-10-30T12:24:08.482Z,3.90
2017-10-30T12:26:36.711Z,4.10
2017-10-30T12:29:04.185Z,4.47
2017-10-30T12:31:31.660Z,3.10
2017-10-30T12:33:59.161Z,4.10
2017-10-30T12:36:26.623Z,3.43
2017-10-30T12:38:54.128Z,3.83
2017-10-30T12:41:21.591Z,2.63
2017-10-30T12:43:49.075Z,4.97
2017-10-30T12:46:17.327Z,2.60
2017-10-30T12:48:44.813Z,2.05
2017-10-30T12:51:12.281Z,4.70
2017-10-30T12:53:39.774Z,2.87
2017-10-30T12:56:07.246Z,2.77
2017-10-30T12:58:34.750Z,4.33
2017-10-30T13:01:02.240Z,3.10
2017-10-30T13:03:29.733Z,2.90
2017-10-30T13:05:57.983Z,3.50
2017-10-30T13:08:25.480Z,3.90
2017-10-30T13:10:53.725Z,5.32
2017-10-30T13:13:21.206Z,4.20
2017-10-30T13:15:48.691Z,2.83
2017-10-30T13:18:16.169Z,2.30
2017-10-30T13:20:43.643Z,2.97
2017-10-30T13:23:11.135Z,3.80
2017-10-30T13:25:38.611Z,3.33
2017-10-30T13:28:06.133Z,4.27
2017-10-30T13:30:33.602Z,4.23
2017-10-30T13:33:01.083Z,5.00
2017-10-30T13:35:30.415Z,4.70
2017-10-30T13:37:57.888Z,5.37
2017-10-30T13:40:25.380Z,4.27
2017-10-30T13:42:52.860Z,3.70
2017-10-30T13:45:20.360Z,5.00
2017-10-30T13:47:47.820Z,3.50
2017-10-30T13:50:15.308Z,2.70
2017-10-30T13:52:42.785Z,4.07
2017-10-30T13:55:11.033Z,3.42
2017-10-30T13:57:38.497Z,3.20
2017-10-30T14:00:07.504Z,2.77
2017-10-30T14:02:35.753Z,2.80
2017-10-30T14:05:03.256Z,3.75
2017-10-30T14:07:30.776Z,3.77
2017-10-30T14:09:58.277Z,3.50
2017-10-30T14:12:25.762Z,3.90
2017-10-30T14:14:53.243Z,3.93
2017-10-30T14:17:20.709Z,3.27
2017-10-30T14:19:49.692Z,3.60
2017-10-30T14:22:17.192Z,2.77
2017-10-30T14:24:45.466Z,3.45
2017-10-30T14:27:14.520Z,3.03
2017-10-30T14:29:42.029Z,4.00
2017-10-30T14:32:09.500Z,4.40
2017-10-30T14:34:36.966Z,3.47
2017-10-30T14:37:04.478Z,3.30
2017-10-30T14:39:32.735Z,2.70
2017-10-30T14:42:00.213Z,2.10
2017-10-30T14:44:28.466Z,2.50
2017-10-30T14:46:55.973Z,3.00
2017-10-30T14:49:23.466Z,3.28
2017-10-30T14:51:50.953Z,3.47
2017-10-30T14:54:18.443Z,3.40
2017-10-30T14:56:45.933Z,5.10
2017-10-30T14:59:13.406Z,4.00
2017-10-30T15:01:41.667Z,3.13
2017-10-30T15:04:09.173Z,3.60
2017-10-30T15:06:37.416Z,3.20
2017-10-30T15:09:04.886Z,4.80
2017-10-30T15:11:33.178Z,2.87
2017-10-30T15:14:00.685Z,8.30
2017-10-30T15:16:28.181Z,5.37
2017-10-30T15:18:55.654Z,7.40
2017-10-30T15:21:23.910Z,4.47
2017-10-30T15:23:51.372Z,5.33
2017-10-30T15:26:18.884Z,4.40
2017-10-30T15:28:46.361Z,3.77
2017-10-30T15:31:13.842Z,3.43
2017-10-30T15:33:41.315Z,4.57
2017-10-30T15:36:08.821Z,4.10
2017-10-30T15:38:36.929Z,3.10
2017-10-30T15:41:04.548Z,4.33
2017-10-30T15:43:32.041Z,3.50
2017-10-30T15:46:00.133Z,8.37
2017-10-30T15:48:29.172Z,6.20
2017-10-30T15:50:57.513Z,10.50
2017-10-30T15:53:24.993Z,9.90
2017-10-30T15:55:52.468Z,6.30
2017-10-30T15:58:19.954Z,5.73
2017-10-30T16:00:47.430Z,6.10
2017-10-30T16:03:14.921Z,4.07
2017-10-30T16:05:43.148Z,6.73
2017-10-30T16:08:10.655Z,5.50
2017-10-30T16:10:38.901Z,4.63
2017-10-30T16:13:06.384Z,4.97
2017-10-30T16:15:34.641Z,3.27
2017-10-30T16:18:02.125Z,4.32
2017-10-30T16:20:29.601Z,4.83
2017-10-30T16:22:57.109Z,4.07
2017-10-30T16:25:24.589Z,3.73
2017-10-30T16:27:53.256Z,4.20
2017-10-30T16:30:20.754Z,4.30
2017-10-30T16:32:48.223Z,4.67
2017-10-30T16:35:16.088Z,3.60
2017-10-30T16:37:43.561Z,4.67
2017-10-30T16:40:11.062Z,3.70
2017-10-30T16:42:39.313Z,4.03
2017-10-30T16:45:06.799Z,4.27
2017-10-30T16:47:35.037Z,4.63
2017-10-30T16:50:03.415Z,3.50
2017-10-30T16:52:30.879Z,3.20
2017-10-30T16:54:58.376Z,3.70
2017-10-30T16:57:26.629Z,4.10
2017-10-30T16:59:54.114Z,4.63
2017-10-30T17:02:23.356Z,4.18
2017-10-30T17:04:50.858Z,3.50
2017-10-30T17:07:19.112Z,4.70
2017-10-30T17:09:46.575Z,4.40
2017-10-30T17:12:14.051Z,4.07
2017-10-30T17:14:42.303Z,4.20
2017-10-30T17:17:09.788Z,6.33
2017-10-30T17:19:38.032Z,8.80
2017-10-30T17:22:05.514Z,8.80
2017-10-30T17:24:33.854Z,12.30
2017-10-30T17:27:01.338Z,11.17
2017-10-30T17:29:28.849Z,15.80
2017-10-30T17:31:56.327Z,20.77
2017-10-30T17:34:24.702Z,30.83
2017-10-30T17:36:52.185Z,38.20
2017-10-30T17:39:20.440Z,37.50
2017-10-30T17:41:47.970Z,31.70
2017-10-30T17:44:15.454Z,26.50
2017-10-30T17:46:42.944Z,16.87
2017-10-30T17:49:10.430Z,15.87
2017-10-30T17:51:37.952Z,18.53
2017-10-30T17:54:05.425Z,18.80
2017-10-30T17:56:33.613Z,13.97
2017-10-30T17:59:01.858Z,15.87
2017-10-30T18:01:29.350Z,14.33
2017-10-30T18:03:57.586Z,15.60
2017-10-30T18:06:25.104Z,16.93
2017-10-30T18:08:52.585Z,15.23
2017-10-30T18:11:20.086Z,15.63
2017-10-30T18:13:48.324Z,15.00
2017-10-30T18:16:15.818Z,15.57
2017-10-30T18:18:43.310Z,16.73
2017-10-30T18:21:11.574Z,12.10
2017-10-30T18:23:39.051Z,14.20
2017-10-30T18:26:06.528Z,14.23
2017-10-30T18:28:34.020Z,15.73
2017-10-30T18:31:01.517Z,14.07
2017-10-30T18:33:29.003Z,13.43
2017-10-30T18:35:56.504Z,14.90
2017-10-30T18:38:24.746Z,14.70
2017-10-30T18:40:52.257Z,14.10
2017-10-30T18:43:19.766Z,14.00
2017-10-30T18:45:47.232Z,13.20
2017-10-30T18:48:14.721Z,13.47
2017-10-30T18:50:42.964Z,13.73
2017-10-30T18:53:10.472Z,13.30
2017-10-30T18:55:37.956Z,15.87
2017-10-30T18:58:05.462Z,16.10
2017-10-30T19:00:33.708Z,14.25
2017-10-30T19:03:01.203Z,17.40
2017-10-30T19:05:29.436Z,16.90
2017-10-30T19:07:57.025Z,20.73
2017-10-30T19:10:24.625Z,17.60
2017-10-30T19:12:52.113Z,17.70
2017-10-30T19:15:19.589Z,17.33
2017-10-30T19:17:47.070Z,18.57
2017-10-30T19:20:15.322Z,16.93
2017-10-30T19:22:42.828Z,19.00
2017-10-30T19:25:10.309Z,18.57
2017-10-30T19:27:37.801Z,20.17
2017-10-30T19:30:05.285Z,20.13
2017-10-30T19:32:34.376Z,21.97
2017-10-30T19:35:02.614Z,19.27
2017-10-30T19:37:30.103Z,19.70
2017-10-30T19:39:58.341Z,17.60
2017-10-30T19:42:25.844Z,20.47
2017-10-30T19:44:54.092Z,17.43
2017-10-30T19:47:21.576Z,15.13
2017-10-30T19:49:49.824Z,16.60
2017-10-30T19:52:17.329Z,12.33
2017-10-30T19:54:44.796Z,12.43
2017-10-30T19:57:12.300Z,11.70
2017-10-30T19:59:39.882Z,12.53
2017-10-30T20:02:08.130Z,12.67
2017-10-30T20:04:35.612Z,13.37
2017-10-30T20:07:09.460Z,14.80
2017-10-30T20:09:42.717Z,16.57
2017-10-30T20:12:17.660Z,19.13
2017-10-30T20:14:45.914Z,17.70
2017-10-30T20:17:13.424Z,12.47
2017-10-30T20:19:40.909Z,13.55
2017-10-30T20:22:08.397Z,12.97
2017-10-30T20:24:36.687Z,12.37
2017-10-30T20:27:04.932Z,12.03
2017-10-30T20:29:33.225Z,15.97
2017-10-30T20:32:01.471Z,11.93
2017-10-30T20:34:28.944Z,8.50
2017-10-30T20:36:56.429Z,7.93
2017-10-30T20:39:25.793Z,7.13
2017-10-30T20:41:53.273Z,8.53
2017-10-30T20:44:20.767Z,10.93
2017-10-30T20:46:48.246Z,10.83
2017-10-30T20:49:15.737Z,10.23
2017-10-30T20:51:43.980Z,8.40
2017-10-30T20:54:11.507Z,9.30
2017-10-30T20:56:38.981Z,12.17
2017-10-30T20:59:06.485Z,11.10
2017-10-30T21:01:33.964Z,9.30
2017-10-30T21:04:02.201Z,8.05
2017-10-30T21:06:30.066Z,8.83
2017-10-30T21:08:57.545Z,7.13
2017-10-30T21:11:25.021Z,5.90
2017-10-30T21:13:53.279Z,6.90
2017-10-30T21:16:20.777Z,6.10
2017-10-30T21:18:48.266Z,6.57
2017-10-30T21:21:15.756Z,4.67
2017-10-30T21:23:44.011Z,4.53
2017-10-30T21:26:11.484Z,5.47
2017-10-30T21:28:38.948Z,4.93
2017-10-30T21:31:06.433Z,5.50
2017-10-30T21:33:33.902Z,8.33
2017-10-30T21:36:02.533Z,9.70
2017-10-30T21:38:30.019Z,9.87
2017-10-30T21:40:58.274Z,6.93
2017-10-30T21:43:25.736Z,8.40
2017-10-30T21:45:53.215Z,9.73
2017-10-30T21:48:21.465Z,11.02
2017-10-30T21:50:49.746Z,12.00
2017-10-30T21:53:17.989Z,10.80
2017-10-30T21:55:45.488Z,10.60
2017-10-30T21:58:12.955Z,10.60
2017-10-30T22:00:41.212Z,10.63
2017-10-30T22:03:09.558Z,9.33
2017-10-30T22:05:37.067Z,9.90
2017-10-30T22:08:05.321Z,8.70
2017-10-30T22:10:32.818Z,8.30
2017-10-30T22:13:00.293Z,8.30
2017-10-30T22:15:27.780Z,7.53
2017-10-30T22:17:55.256Z,9.33
2017-10-30T22:20:22.749Z,9.30
2017-10-30T22:22:50.236Z,8.60
2017-10-30T22:25:17.714Z,8.27
2017-10-30T22:27:45.191Z,8.60
2017-10-30T22:30:12.654Z,7.00
2017-10-30T22:32:40.933Z,6.53
2017-10-30T22:35:09.196Z,6.17
2017-10-30T22:37:36.681Z,5.87
2017-10-30T22:40:04.925Z,6.33
2017-10-30T22:42:32.422Z,7.00
2017-10-30T22:45:00.366Z,8.07
2017-10-30T22:47:28.627Z,8.83
2017-10-30T22:49:56.859Z,7.63
2017-10-30T22:52:25.174Z,8.20
2017-10-30T22:54:53.455Z,7.13
2017-10-30T22:57:21.751Z,7.30
2017-10-30T22:59:49.239Z,6.80
2017-10-30T23:02:16.759Z,7.53
2017-10-30T23:04:44.233Z,6.65
2017-10-30T23:07:12.477Z,6.87
2017-10-30T23:09:39.964Z,7.97
2017-10-30T23:12:08.222Z,5.67
2017-10-30T23:14:35.698Z,6.23
2017-10-30T23:17:03.957Z,6.60
2017-10-30T23:19:31.441Z,6.67
2017-10-30T23:21:59.671Z,6.00
2017-10-30T23:24:27.166Z,6.50
2017-10-30T23:26:55.399Z,6.28
2017-10-30T23:29:22.888Z,5.87
2017-10-30T23:31:50.352Z,6.10
2017-10-30T23:34:18.592Z,7.53
2017-10-30T23:36:46.078Z,10.50
2017-10-30T23:39:13.557Z,23.73
2017-10-30T23:41:41.050Z,6.70
2017-10-30T23:44:08.538Z,10.00
2017-10-30T23:46:36.018Z,11.23
2017-10-30T23:49:04.275Z,11.50
2017-10-30T23:51:31.745Z,10.87
2017-10-30T23:54:00.005Z,10.20
2017-10-30T23:56:27.483Z,7.17
2017-10-30T23:58:55.738Z,7.37
